sensor_id;sensor_type;location;lat;lon;timestamp;pressure;altitude;pressure_sealevel;temperature;humidity
64243;BME280;50573;51.512;5.386;2023-05-29T00:06:31;167916.28;;;12.77;100.00
64243;BME280;50573;51.512;5.386;2023-05-29T00:16:34;167860.53;;;12.56;100.00
64243;BME280;50573;51.512;5.386;2023-05-29T00:26:40;167823.34;;;12.42;100.00
64243;BME280;50573;51.512;5.386;2023-05-29T00:36:43;167758.34;;;12.17;100.00
64243;BME280;50573;51.512;5.386;2023-05-29T00:46:51;167723.91;;;12.04;96.88
64243;BME280;50573;51.512;5.386;2023-05-29T00:56:55;167672.16;;;11.85;94.77
64243;BME280;50573;51.512;5.386;2023-05-29T01:07:01;167633.69;;;11.70;94.05
64243;BME280;50573;51.512;5.386;2023-05-29T01:17:10;167583.19;;;11.51;94.19
64243;BME280;50573;51.512;5.386;2023-05-29T01:27:17;167548.72;;;11.38;95.34
64243;BME280;50573;51.512;5.386;2023-05-29T01:37:21;167497.00;;;11.18;96.47
64243;BME280;50573;51.512;5.386;2023-05-29T01:47:26;167459.91;;;11.04;96.84
64243;BME280;50573;51.512;5.386;2023-05-29T01:57:29;167440.03;;;10.97;97.61
64243;BME280;50573;51.512;5.386;2023-05-29T02:07:33;167416.16;;;10.88;98.08
64243;BME280;50573;51.512;5.386;2023-05-29T02:17:38;167392.31;;;10.79;98.25
64243;BME280;50573;51.512;5.386;2023-05-29T02:27:44;167371.09;;;10.71;97.96
64243;BME280;50573;51.512;5.386;2023-05-29T02:37:48;167328.69;;;10.55;98.89
64243;BME280;50573;51.512;5.386;2023-05-29T02:47:53;167286.28;;;10.39;99.16
64243;BME280;50573;51.512;5.386;2023-05-29T02:57:57;167270.34;;;10.33;99.22
64243;BME280;50573;51.512;5.386;2023-05-29T03:08:03;167231.94;;;10.18;100.00
64243;BME280;50573;51.512;5.386;2023-05-29T03:18:06;167217.41;;;10.13;100.00
64243;BME280;50573;51.512;5.386;2023-05-29T03:28:11;167181.56;;;9.99;100.00
64243;BME280;50573;51.512;5.386;2023-05-29T03:38:14;167169.63;;;9.95;100.00
64243;BME280;50573;51.512;5.386;2023-05-29T03:48:19;167168.31;;;9.94;100.00
64243;BME280;50573;51.512;5.386;2023-05-29T03:58:23;167153.75;;;9.89;100.00
64243;BME280;50573;51.512;5.386;2023-05-29T04:08:28;167149.78;;;9.87;100.00
64243;BME280;50573;51.512;5.386;2023-05-29T04:18:31;167156.38;;;9.90;100.00
64243;BME280;50573;51.512;5.386;2023-05-29T04:28:36;167181.56;;;9.99;100.00
64243;BME280;50573;51.512;5.386;2023-05-29T04:38:40;167209.44;;;10.10;100.00
64243;BME280;50573;51.512;5.386;2023-05-29T04:48:45;167258.44;;;10.28;100.00
64243;BME280;50573;51.512;5.386;2023-05-29T04:58:48;167245.19;;;10.23;100.00
64243;BME280;50573;51.512;5.386;2023-05-29T05:08:53;167324.72;;;10.53;99.61
64243;BME280;50573;51.512;5.386;2023-05-29T05:18:56;167410.88;;;10.86;97.86
64243;BME280;50573;51.512;5.386;2023-05-29T05:29:01;167479.78;;;11.12;95.72
64243;BME280;50573;51.512;5.386;2023-05-29T05:39:06;167560.69;;;11.43;93.96
64243;BME280;50573;51.512;5.386;2023-05-29T05:49:12;167627.03;;;11.68;92.27
64243;BME280;50573;51.512;5.386;2023-05-29T05:59:16;167653.56;;;11.78;89.79
64243;BME280;50573;51.512;5.386;2023-05-29T06:09:21;167717.22;;;12.02;88.47
64243;BME280;50573;51.512;5.386;2023-05-29T06:19:24;167800.84;;;12.33;84.78
64243;BME280;50573;51.512;5.386;2023-05-29T06:29:36;167848.56;;;12.51;84.98
64243;BME280;50573;51.512;5.386;2023-05-29T06:39:44;167925.53;;;12.81;83.19
64243;BME280;50573;51.512;5.386;2023-05-29T06:49:48;168025.13;;;13.18;81.48
64243;BME280;50573;51.512;5.386;2023-05-29T06:59:52;167991.97;;;13.06;79.65
64243;BME280;50573;51.512;5.386;2023-05-29T07:09:56;168019.81;;;13.16;77.92
64243;BME280;50573;51.512;5.386;2023-05-29T07:19:59;168091.53;;;13.43;75.71
64243;BME280;50573;51.512;5.386;2023-05-29T07:30:08;168241.59;;;14.00;74.64
64243;BME280;50573;51.512;5.386;2023-05-29T07:40:11;168297.41;;;14.21;72.83
64243;BME280;50573;51.512;5.386;2023-05-29T07:50:35;168367.81;;;14.48;71.29
64243;BME280;50573;51.512;5.386;2023-05-29T08:00:39;168428.97;;;14.71;68.01
64243;BME280;50573;51.512;5.386;2023-05-29T08:10:44;168444.88;;;14.77;68.68
64243;BME280;50573;51.512;5.386;2023-05-29T08:20:48;168587.09;;;15.30;67.65
64243;BME280;50573;51.512;5.386;2023-05-29T08:30:52;168633.66;;;15.48;66.91
64243;BME280;50573;51.512;5.386;2023-05-29T08:40:59;168655.00;;;15.56;64.95
64243;BME280;50573;51.512;5.386;2023-05-29T08:51:08;168814.50;;;16.16;64.04
64243;BME280;50573;51.512;5.386;2023-05-29T09:01:15;168833.16;;;16.23;64.13
64243;BME280;50573;51.512;5.386;2023-05-29T09:11:20;168791.94;;;16.08;62.59
64243;BME280;50573;51.512;5.386;2023-05-29T09:21:27;168851.78;;;16.30;61.58
64243;BME280;50573;51.512;5.386;2023-05-29T09:31:45;168984.84;;;16.81;59.72
64243;BME280;50573;51.512;5.386;2023-05-29T09:41:49;168971.56;;;16.76;58.74
64243;BME280;50573;51.512;5.386;2023-05-29T09:51:57;169192.47;;;17.59;57.57
64243;BME280;50573;51.512;5.386;2023-05-29T10:02:03;169219.09;;;17.69;57.16
64243;BME280;50573;51.512;5.386;2023-05-29T10:12:11;169256.41;;;17.83;57.05
64243;BME280;50573;51.512;5.386;2023-05-29T10:22:19;169370.88;;;18.26;55.58
64243;BME280;50573;51.512;5.386;2023-05-29T10:32:29;169400.19;;;18.37;54.76
64243;BME280;50573;51.512;5.386;2023-05-29T10:42:45;169466.84;;;18.62;54.89
64243;BME280;50573;51.512;5.386;2023-05-29T10:52:53;169578.72;;;19.04;52.23
64243;BME280;50573;51.512;5.386;2023-05-29T11:02:56;169560.06;;;18.97;52.53
64243;BME280;50573;51.512;5.386;2023-05-29T11:13:03;169613.38;;;19.17;51.35
64243;BME280;50573;51.512;5.386;2023-05-29T11:23:07;169564.06;;;18.99;52.55
64243;BME280;50573;51.512;5.386;2023-05-29T11:33:19;169626.69;;;19.22;51.91
64243;BME280;50573;51.512;5.386;2023-05-29T11:43:27;169722.66;;;19.59;50.85
64243;BME280;50573;51.512;5.386;2023-05-29T11:53:34;169839.94;;;20.03;49.24
64243;BME280;50573;51.512;5.386;2023-05-29T12:03:39;169826.59;;;19.98;49.63
64243;BME280;50573;51.512;5.386;2023-05-29T12:13:55;169807.94;;;19.91;49.64
64243;BME280;50573;51.512;5.386;2023-05-29T12:24:01;169891.97;;;20.22;46.98
64243;BME280;50573;51.512;5.386;2023-05-29T12:34:17;170003.97;;;20.64;47.66
64243;BME280;50573;51.512;5.386;2023-05-29T12:44:21;169980.00;;;20.55;44.38
64243;BME280;50573;51.512;5.386;2023-05-29T12:54:26;169911.97;;;20.30;42.44
64243;BME280;50573;51.512;5.386;2023-05-29T13:04:33;169866.59;;;20.13;44.04
64243;BME280;50573;51.512;5.386;2023-05-29T13:14:42;169863.91;;;20.12;43.68
64243;BME280;50573;51.512;5.386;2023-05-29T13:24:49;169911.97;;;20.30;43.31
64243;BME280;50573;51.512;5.386;2023-05-29T13:34:55;170082.66;;;20.94;42.18
64243;BME280;50573;51.512;5.386;2023-05-29T13:45:09;169957.31;;;20.47;42.39
64243;BME280;50573;51.512;5.386;2023-05-29T13:55:16;170152.06;;;21.20;41.70
64243;BME280;50573;51.512;5.386;2023-05-29T14:05:25;170354.88;;;21.97;39.10
64243;BME280;50573;51.512;5.386;2023-05-29T14:15:32;170173.41;;;21.28;39.78
64243;BME280;50573;51.512;5.386;2023-05-29T14:25:44;170216.09;;;21.44;41.18
64243;BME280;50573;51.512;5.386;2023-05-29T14:35:49;170228.06;;;21.49;43.25
64243;BME280;50573;51.512;5.386;2023-05-29T14:45:52;170172.06;;;21.28;41.81
64243;BME280;50573;51.512;5.386;2023-05-29T14:55:58;170208.09;;;21.41;40.47
64243;BME280;50573;51.512;5.386;2023-05-29T15:06:03;170264.09;;;21.62;39.53
64243;BME280;50573;51.512;5.386;2023-05-29T15:16:10;170065.31;;;20.88;40.95
64243;BME280;50573;51.512;5.386;2023-05-29T15:26:21;170005.31;;;20.65;42.15
64243;BME280;50573;51.512;5.386;2023-05-29T15:36:27;169865.25;;;20.12;41.37
64243;BME280;50573;51.512;5.386;2023-05-29T15:46:35;169881.28;;;20.18;41.32
64243;BME280;50573;51.512;5.386;2023-05-29T15:56:41;169845.28;;;20.05;40.96
64243;BME280;50573;51.512;5.386;2023-05-29T16:06:48;169747.97;;;19.68;40.93
64243;BME280;50573;51.512;5.386;2023-05-29T16:16:55;169764.00;;;19.74;41.59
64243;BME280;50573;51.512;5.386;2023-05-29T16:27:00;169762.63;;;19.74;41.09
64243;BME280;50573;51.512;5.386;2023-05-29T16:37:06;169785.31;;;19.82;40.60
64243;BME280;50573;51.512;5.386;2023-05-29T16:47:10;169664.03;;;19.37;40.71
64243;BME280;50573;51.512;5.386;2023-05-29T16:57:15;169672.03;;;19.40;40.65
64243;BME280;50573;51.512;5.386;2023-05-29T17:07:20;169616.00;;;19.18;42.23
64243;BME280;50573;51.512;5.386;2023-05-29T17:17:25;169552.06;;;18.94;41.71
64243;BME280;50573;51.512;5.386;2023-05-29T17:27:28;169592.06;;;19.09;41.12
64243;BME280;50573;51.512;5.386;2023-05-29T17:37:33;169537.41;;;18.89;42.00
64243;BME280;50573;51.512;5.386;2023-05-29T17:47:36;169529.41;;;18.86;41.58
64243;BME280;50573;51.512;5.386;2023-05-29T17:57:41;169485.44;;;18.69;41.47
64243;BME280;50573;51.512;5.386;2023-05-29T18:07:44;169444.19;;;18.54;41.26
64243;BME280;50573;51.512;5.386;2023-05-29T18:17:48;169382.88;;;18.31;40.03
64243;BME280;50573;51.512;5.386;2023-05-29T18:27:53;169398.81;;;18.37;40.30
64243;BME280;50573;51.512;5.386;2023-05-29T18:38:00;169352.22;;;18.19;41.10
64243;BME280;50573;51.512;5.386;2023-05-29T18:48:06;169291.03;;;17.96;41.32
64243;BME280;50573;51.512;5.386;2023-05-29T18:58:16;169216.47;;;17.68;42.46
64243;BME280;50573;51.512;5.386;2023-05-29T19:08:25;169163.19;;;17.48;42.83
64243;BME280;50573;51.512;5.386;2023-05-29T19:18:32;169079.34;;;17.16;42.39
64243;BME280;50573;51.512;5.386;2023-05-29T19:28:36;169010.13;;;16.90;42.90
64243;BME280;50573;51.512;5.386;2023-05-29T19:38:42;168930.28;;;16.60;44.95
64243;BME280;50573;51.512;5.386;2023-05-29T19:48:46;168871.72;;;16.38;46.74
64243;BME280;50573;51.512;5.386;2023-05-29T19:58:53;168766.69;;;15.98;51.29
64243;BME280;50573;51.512;5.386;2023-05-29T20:08:56;168633.66;;;15.48;55.91
64243;BME280;50573;51.512;5.386;2023-05-29T20:19:00;168575.16;;;15.26;57.04
64243;BME280;50573;51.512;5.386;2023-05-29T20:29:03;168521.97;;;15.06;57.50
64243;BME280;50573;51.512;5.386;2023-05-29T20:39:08;168436.94;;;14.74;58.73
64243;BME280;50573;51.512;5.386;2023-05-29T20:49:19;168373.16;;;14.50;58.99
64243;BME280;50573;51.512;5.386;2023-05-29T20:59:23;168306.75;;;14.25;60.65
64243;BME280;50573;51.512;5.386;2023-05-29T21:09:26;168245.59;;;14.02;60.75
64243;BME280;50573;51.512;5.386;2023-05-29T21:19:32;168179.16;;;13.76;60.70
64243;BME280;50573;51.512;5.386;2023-05-29T21:29:35;168131.34;;;13.58;61.14
64243;BME280;50573;51.512;5.386;2023-05-29T21:39:39;168083.59;;;13.40;62.24
64243;BME280;50573;51.512;5.386;2023-05-29T21:49:42;168011.88;;;13.13;63.65
64243;BME280;50573;51.512;5.386;2023-05-29T21:59:48;167978.69;;;13.01;64.56
64243;BME280;50573;51.512;5.386;2023-05-29T22:09:51;167925.53;;;12.81;66.21
64243;BME280;50573;51.512;5.386;2023-05-29T22:19:55;167855.22;;;12.54;67.99
64243;BME280;50573;51.512;5.386;2023-05-29T22:29:58;167794.19;;;12.31;69.68
64243;BME280;50573;51.512;5.386;2023-05-29T22:40:04;167741.13;;;12.11;71.30
64243;BME280;50573;51.512;5.386;2023-05-29T22:50:09;167689.41;;;11.91;72.72
64243;BME280;50573;51.512;5.386;2023-05-29T23:00:14;167613.72;;;11.63;74.71
64243;BME280;50573;51.512;5.386;2023-05-29T23:10:18;167593.84;;;11.55;76.31
64243;BME280;50573;51.512;5.386;2023-05-29T23:20:22;167547.44;;;11.38;78.33
64243;BME280;50573;51.512;5.386;2023-05-29T23:30:26;167498.34;;;11.19;80.56
64243;BME280;50573;51.512;5.386;2023-05-29T23:40:31;167467.84;;;11.07;82.32
64243;BME280;50573;51.512;5.386;2023-05-29T23:50:34;167417.50;;;10.88;84.15
